Terminal Aerodrome Forecast
Issued by NWS Mt. Holly, NJ

Current Version | Previous Version | Text Only | Print | Product List | Glossary On
Versions: 1 2 3 4 5 6 7 8 9 10 11 12 13 14 15 16 17 18 19 20 21 22 23 24 25 26 27 28
000
FTUS41 KPHI 291500 AAA
TAFPHL
TAF AMD
KPHL 291516Z 2915/3018 10007KT P6SM SCT100 OVC250
     FM291700 15007KT P6SM BKN100
     FM292300 16007KT 4SM -SN OVC040
     FM300000 17008KT 1 1/2SM -SN FEW010 OVC020
     FM300300 18005KT 5SM -SN FEW010 OVC025
     FM300400 20007KT P6SM FEW009 OVC025
     FM301000 27010KT P6SM SCT015 OVC040
     FM301400 30014G25KT P6SM SCT040 SCT080=

USA.gov is the U.S. government's official web portal to all federal, state and local government web resources and services.